KRIC/RIC METAR and TAF weather

Enter ICAO airport designator
Station Type Date Time Source
KRIC METAR 2020/09/25 07:54 UTC NOAA

KRIC 250754Z 23005KT 10SM BKN060 OVC090 18/14 A3008 RMK AO2 SLP191 T01780144


Station Type Date Time Source
KRIC Decoded METAR 2020/09/25 07:54 UTC NOAA

RICHMOND INTERNATIONAL AIRPORT, VA, United States (KRIC) 37-31N 077-19W 50M
Sep 25, 2020 - 03:54 AM EDT / 2020.09.25 0754 UTC
Wind: from the SW (230 degrees) at 6 MPH (5 KT):0
Visibility: 10 mile(s):0
Sky conditions: overcast
Temperature: 64.0 F (17.8 C)
Dew Point: 57.9 F (14.4 C)
Relative Humidity: 80%
Pressure (altimeter): 30.08 in. Hg (1018 hPa)
ob: KRIC 250754Z 23005KT 10SM BKN060 OVC090 18/14 A3008 RMK AO2 SLP191 T01780144
cycle: 8

Station Type Date Time Source
KRIC TAF 2020/09/25 06:22 UTC NOAA

TAF KRIC 250520Z 2506/2606 23004KT P6SM VCSH OVC100
FM250900 VRB03KT P6SM OVC060
FM251400 19005KT P6SM VCSH OVC050
FM252000 13005KT P6SM VCSH OVC030
FM260000 09004KT P6SM VCSH OVC010

Example: see airport list